sensor_id;sensor_type;location;lat;lon;timestamp;pressure;altitude;pressure_sealevel;temperature;humidity
76124;BME280;65173;48.066;20.976;2023-03-03T00:00:38;100686.25;;;-0.37;73.64
76124;BME280;65173;48.066;20.976;2023-03-03T00:03:41;100685.44;;;-0.37;73.79
76124;BME280;65173;48.066;20.976;2023-03-03T00:06:45;100687.25;;;-0.38;73.70
76124;BME280;65173;48.066;20.976;2023-03-03T00:09:48;100690.75;;;-0.32;74.41
76124;BME280;65173;48.066;20.976;2023-03-03T00:12:51;100686.09;;;-0.30;73.45
76124;BME280;65173;48.066;20.976;2023-03-03T00:16:09;100673.59;;;-0.40;74.01
76124;BME280;65173;48.066;20.976;2023-03-03T00:19:17;100675.38;;;-0.28;73.60
76124;BME280;65173;48.066;20.976;2023-03-03T00:22:29;100676.22;;;-0.40;73.74
76124;BME280;65173;48.066;20.976;2023-03-03T00:25:34;100678.69;;;-0.33;73.42
76124;BME280;65173;48.066;20.976;2023-03-03T00:28:47;100677.66;;;-0.32;73.32
76124;BME280;65173;48.066;20.976;2023-03-03T00:31:50;100679.63;;;-0.39;73.42
76124;BME280;65173;48.066;20.976;2023-03-03T00:34:55;100684.97;;;-0.46;73.46
76124;BME280;65173;48.066;20.976;2023-03-03T00:38:00;100688.28;;;-0.50;73.30
76124;BME280;65173;48.066;20.976;2023-03-03T00:41:13;100678.97;;;-0.70;75.03
76124;BME280;65173;48.066;20.976;2023-03-03T00:47:35;100672.59;;;-0.62;75.29
76124;BME280;65173;48.066;20.976;2023-03-03T00:50:42;100671.22;;;-0.64;75.37
76124;BME280;65173;48.066;20.976;2023-03-03T00:53:45;100675.41;;;-0.52;74.63
76124;BME280;65173;48.066;20.976;2023-03-03T00:56:48;100672.94;;;-0.58;74.38
76124;BME280;65173;48.066;20.976;2023-03-03T00:59:51;100673.97;;;-0.59;73.96
76124;BME280;65173;48.066;20.976;2023-03-03T01:02:55;100660.88;;;-0.71;74.64
76124;BME280;65173;48.066;20.976;2023-03-03T01:05:58;100656.34;;;-0.76;75.59
76124;BME280;65173;48.066;20.976;2023-03-03T01:09:02;100660.91;;;-0.94;76.37
76124;BME280;65173;48.066;20.976;2023-03-03T01:12:05;100656.00;;;-0.91;75.91
76124;BME280;65173;48.066;20.976;2023-03-03T01:15:09;100645.75;;;-0.81;75.95
76124;BME280;65173;48.066;20.976;2023-03-03T01:18:13;100654.97;;;-0.78;75.62
76124;BME280;65173;48.066;20.976;2023-03-03T01:21:16;100640.66;;;-0.76;74.72
76124;BME280;65173;48.066;20.976;2023-03-03T01:24:20;100641.91;;;-0.90;75.65
76124;BME280;65173;48.066;20.976;2023-03-03T01:27:23;100644.84;;;-0.75;74.47
76124;BME280;65173;48.066;20.976;2023-03-03T01:30:26;100646.78;;;-0.82;74.79
76124;BME280;65173;48.066;20.976;2023-03-03T01:33:30;100639.16;;;-0.95;74.96
76124;BME280;65173;48.066;20.976;2023-03-03T01:36:33;100635.75;;;-0.84;74.69
76124;BME280;65173;48.066;20.976;2023-03-03T01:39:36;100638.34;;;-0.84;74.08
76124;BME280;65173;48.066;20.976;2023-03-03T01:42:39;100625.97;;;-1.00;74.83
76124;BME280;65173;48.066;20.976;2023-03-03T01:48:57;100630.53;;;-0.95;74.42
76124;BME280;65173;48.066;20.976;2023-03-03T01:52:21;100635.53;;;-0.94;74.33
76124;BME280;65173;48.066;20.976;2023-03-03T01:55:32;100627.22;;;-1.14;75.64
76124;BME280;65173;48.066;20.976;2023-03-03T01:58:39;100626.31;;;-0.96;74.82
76124;BME280;65173;48.066;20.976;2023-03-03T02:01:44;100636.34;;;-0.93;74.38
76124;BME280;65173;48.066;20.976;2023-03-03T02:04:49;100627.22;;;-1.02;74.89
76124;BME280;65173;48.066;20.976;2023-03-03T02:07:52;100626.88;;;-1.06;74.29
76124;BME280;65173;48.066;20.976;2023-03-03T02:10:56;100630.75;;;-0.97;73.81
76124;BME280;65173;48.066;20.976;2023-03-03T02:13:59;100629.97;;;-1.09;73.91
76124;BME280;65173;48.066;20.976;2023-03-03T02:17:02;100630.28;;;-1.17;74.61
76124;BME280;65173;48.066;20.976;2023-03-03T02:26:52;100625.16;;;-1.24;73.95
76124;BME280;65173;48.066;20.976;2023-03-03T02:29:54;100611.09;;;-1.11;73.09
76124;BME280;65173;48.066;20.976;2023-03-03T02:32:58;100608.56;;;-1.18;73.77
76124;BME280;65173;48.066;20.976;2023-03-03T02:36:00;100608.47;;;-1.11;73.36
76124;BME280;65173;48.066;20.976;2023-03-03T02:39:08;100600.63;;;-1.11;73.00
76124;BME280;65173;48.066;20.976;2023-03-03T02:42:22;100603.78;;;-1.21;73.00
76124;BME280;65173;48.066;20.976;2023-03-03T02:45:30;100594.00;;;-1.25;73.02
76124;BME280;65173;48.066;20.976;2023-03-03T02:48:33;100589.03;;;-1.27;73.15
76124;BME280;65173;48.066;20.976;2023-03-03T02:51:36;100594.22;;;-1.38;73.36
76124;BME280;65173;48.066;20.976;2023-03-03T02:54:39;100595.91;;;-1.56;74.34
76124;BME280;65173;48.066;20.976;2023-03-03T02:57:42;100593.09;;;-1.43;73.91
76124;BME280;65173;48.066;20.976;2023-03-03T03:00:45;100582.75;;;-1.49;73.62
76124;BME280;65173;48.066;20.976;2023-03-03T03:03:55;100589.09;;;-1.57;73.73
76124;BME280;65173;48.066;20.976;2023-03-03T03:06:59;100590.91;;;-1.57;73.97
76124;BME280;65173;48.066;20.976;2023-03-03T03:10:04;100597.84;;;-1.63;74.39
76124;BME280;65173;48.066;20.976;2023-03-03T03:13:11;100583.63;;;-1.67;74.53
76124;BME280;65173;48.066;20.976;2023-03-03T03:16:15;100579.56;;;-1.63;74.59
76124;BME280;65173;48.066;20.976;2023-03-03T03:19:18;100581.81;;;-1.55;74.49
76124;BME280;65173;48.066;20.976;2023-03-03T03:22:22;100571.59;;;-1.56;74.45
76124;BME280;65173;48.066;20.976;2023-03-03T03:25:25;100577.16;;;-1.64;74.47
76124;BME280;65173;48.066;20.976;2023-03-03T03:28:28;100577.94;;;-1.76;74.63
76124;BME280;65173;48.066;20.976;2023-03-03T03:31:32;100566.91;;;-1.78;75.52
76124;BME280;65173;48.066;20.976;2023-03-03T03:34:37;100561.34;;;-1.81;75.54
76124;BME280;65173;48.066;20.976;2023-03-03T03:37:40;100566.00;;;-1.71;75.48
76124;BME280;65173;48.066;20.976;2023-03-03T03:40:43;100567.00;;;-1.84;75.88
76124;BME280;65173;48.066;20.976;2023-03-03T03:43:46;100561.66;;;-1.78;75.81
76124;BME280;65173;48.066;20.976;2023-03-03T03:46:50;100560.44;;;-1.75;75.74
76124;BME280;65173;48.066;20.976;2023-03-03T03:49:54;100561.44;;;-1.76;75.40
76124;BME280;65173;48.066;20.976;2023-03-03T03:52:57;100555.56;;;-1.71;75.24
76124;BME280;65173;48.066;20.976;2023-03-03T03:56:01;100558.16;;;-1.83;75.47
76124;BME280;65173;48.066;20.976;2023-03-03T03:59:06;100554.31;;;-1.81;75.22
76124;BME280;65173;48.066;20.976;2023-03-03T04:02:09;100550.53;;;-1.85;75.12
76124;BME280;65173;48.066;20.976;2023-03-03T04:05:13;100552.31;;;-1.97;75.62
76124;BME280;65173;48.066;20.976;2023-03-03T04:08:17;100547.66;;;-2.06;75.51
76124;BME280;65173;48.066;20.976;2023-03-03T04:11:21;100542.66;;;-1.96;75.73
76124;BME280;65173;48.066;20.976;2023-03-03T04:14:24;100549.94;;;-1.98;76.01
76124;BME280;65173;48.066;20.976;2023-03-03T04:17:27;100550.22;;;-2.18;75.75
76124;BME280;65173;48.066;20.976;2023-03-03T04:20:30;100546.63;;;-2.05;75.28
76124;BME280;65173;48.066;20.976;2023-03-03T04:23:34;100541.97;;;-2.03;76.06
76124;BME280;65173;48.066;20.976;2023-03-03T04:26:37;100549.47;;;-1.95;75.28
76124;BME280;65173;48.066;20.976;2023-03-03T04:29:41;100538.09;;;-2.13;75.87
76124;BME280;65173;48.066;20.976;2023-03-03T04:32:44;100542.50;;;-2.13;75.25
76124;BME280;65173;48.066;20.976;2023-03-03T04:35:48;100544.47;;;-2.08;75.74
76124;BME280;65173;48.066;20.976;2023-03-03T04:38:52;100536.84;;;-2.10;75.68
76124;BME280;65173;48.066;20.976;2023-03-03T04:41:55;100541.38;;;-2.17;75.99
76124;BME280;65173;48.066;20.976;2023-03-03T04:44:59;100534.56;;;-2.18;75.75
76124;BME280;65173;48.066;20.976;2023-03-03T04:48:02;100535.81;;;-2.21;76.19
76124;BME280;65173;48.066;20.976;2023-03-03T04:51:06;100539.88;;;-2.25;75.97
76124;BME280;65173;48.066;20.976;2023-03-03T04:54:11;100538.72;;;-2.29;76.59
76124;BME280;65173;48.066;20.976;2023-03-03T04:57:14;100525.81;;;-2.24;76.15
76124;BME280;65173;48.066;20.976;2023-03-03T05:00:18;100538.06;;;-2.24;75.99
76124;BME280;65173;48.066;20.976;2023-03-03T05:03:22;100538.63;;;-2.22;76.02
76124;BME280;65173;48.066;20.976;2023-03-03T05:06:25;100537.03;;;-2.23;75.91
76124;BME280;65173;48.066;20.976;2023-03-03T05:09:29;100535.81;;;-2.21;76.43
76124;BME280;65173;48.066;20.976;2023-03-03T05:12:32;100540.31;;;-2.28;76.11
76124;BME280;65173;48.066;20.976;2023-03-03T05:15:35;100546.44;;;-2.34;76.53
76124;BME280;65173;48.066;20.976;2023-03-03T05:18:38;100543.09;;;-2.41;76.80
76124;BME280;65173;48.066;20.976;2023-03-03T05:21:41;100542.56;;;-2.31;76.45
76124;BME280;65173;48.066;20.976;2023-03-03T05:24:44;100544.84;;;-2.35;76.18
76124;BME280;65173;48.066;20.976;2023-03-03T05:27:50;100559.06;;;-2.49;76.76
76124;BME280;65173;48.066;20.976;2023-03-03T05:30:53;100548.63;;;-2.49;77.18
76124;BME280;65173;48.066;20.976;2023-03-03T05:33:56;100553.50;;;-2.23;76.37
76124;BME280;65173;48.066;20.976;2023-03-03T05:36:59;100546.31;;;-1.97;75.46
76124;BME280;65173;48.066;20.976;2023-03-03T05:40:02;100547.22;;;-1.92;75.40
76124;BME280;65173;48.066;20.976;2023-03-03T05:43:06;100555.41;;;-1.88;75.11
76124;BME280;65173;48.066;20.976;2023-03-03T05:46:09;100558.53;;;-1.56;74.23
76124;BME280;65173;48.066;20.976;2023-03-03T05:49:12;100557.69;;;-0.87;71.66
76124;BME280;65173;48.066;20.976;2023-03-03T05:52:15;100565.63;;;-0.30;69.14
76124;BME280;65173;48.066;20.976;2023-03-03T05:55:18;100571.28;;;0.24;67.17
76124;BME280;65173;48.066;20.976;2023-03-03T05:58:21;100572.41;;;0.61;65.66
76124;BME280;65173;48.066;20.976;2023-03-03T06:01:24;100569.63;;;0.51;66.30
76124;BME280;65173;48.066;20.976;2023-03-03T06:04:28;100574.41;;;0.71;65.70
76124;BME280;65173;48.066;20.976;2023-03-03T06:07:31;100579.22;;;1.18;64.50
76124;BME280;65173;48.066;20.976;2023-03-03T06:10:34;100581.00;;;1.56;62.87
76124;BME280;65173;48.066;20.976;2023-03-03T06:13:40;100586.59;;;1.64;62.31
76124;BME280;65173;48.066;20.976;2023-03-03T06:16:44;100592.31;;;1.83;61.89
76124;BME280;65173;48.066;20.976;2023-03-03T06:19:47;100586.97;;;1.73;62.09
76124;BME280;65173;48.066;20.976;2023-03-03T06:22:50;100601.31;;;1.87;62.11
76124;BME280;65173;48.066;20.976;2023-03-03T06:25:53;100606.53;;;2.41;61.17
76124;BME280;65173;48.066;20.976;2023-03-03T06:28:56;100602.94;;;2.89;59.35
76124;BME280;65173;48.066;20.976;2023-03-03T06:31:59;100611.47;;;2.64;60.54
76124;BME280;65173;48.066;20.976;2023-03-03T06:35:03;100609.41;;;3.13;59.57
76124;BME280;65173;48.066;20.976;2023-03-03T06:38:06;100605.69;;;3.67;58.01
76124;BME280;65173;48.066;20.976;2023-03-03T06:41:10;100607.38;;;3.93;57.78
76124;BME280;65173;48.066;20.976;2023-03-03T06:44:12;100600.28;;;4.24;57.50
76124;BME280;65173;48.066;20.976;2023-03-03T06:47:15;100605.56;;;4.39;56.25
76124;BME280;65173;48.066;20.976;2023-03-03T06:50:19;100607.38;;;4.89;55.91
76124;BME280;65173;48.066;20.976;2023-03-03T06:53:22;100608.97;;;4.96;55.44
76124;BME280;65173;48.066;20.976;2023-03-03T06:56:27;100599.59;;;5.39;54.67
76124;BME280;65173;48.066;20.976;2023-03-03T06:59:30;100603.63;;;5.21;55.69
76124;BME280;65173;48.066;20.976;2023-03-03T07:02:33;100610.84;;;5.70;54.15
76124;BME280;65173;48.066;20.976;2023-03-03T07:05:35;100616.41;;;6.22;53.20
76124;BME280;65173;48.066;20.976;2023-03-03T07:08:38;100620.53;;;6.34;52.64
76124;BME280;65173;48.066;20.976;2023-03-03T07:11:41;100628.38;;;6.49;52.69
76124;BME280;65173;48.066;20.976;2023-03-03T07:14:51;100629.28;;;6.97;51.90
76124;BME280;65173;48.066;20.976;2023-03-03T07:17:57;100629.19;;;7.31;49.44
76124;BME280;65173;48.066;20.976;2023-03-03T07:21:34;100628.69;;;7.29;50.19
76124;BME280;65173;48.066;20.976;2023-03-03T07:24:38;100623.72;;;7.70;49.05
76124;BME280;65173;48.066;20.976;2023-03-03T07:27:40;100626.34;;;8.08;49.33
76124;BME280;65173;48.066;20.976;2023-03-03T07:30:43;100626.50;;;7.97;49.26
76124;BME280;65173;48.066;20.976;2023-03-03T07:33:46;100627.50;;;8.58;48.44
76124;BME280;65173;48.066;20.976;2023-03-03T07:36:53;100621.97;;;9.00;46.22
76124;BME280;65173;48.066;20.976;2023-03-03T07:39:57;100614.00;;;9.00;47.82
76124;BME280;65173;48.066;20.976;2023-03-03T07:46:38;100612.97;;;9.92;46.23
76124;BME280;65173;48.066;20.976;2023-03-03T07:49:43;100611.84;;;10.21;45.65
76124;BME280;65173;48.066;20.976;2023-03-03T07:52:58;100611.16;;;10.37;44.04
76124;BME280;65173;48.066;20.976;2023-03-03T07:56:04;100610.81;;;10.84;43.79
76124;BME280;65173;48.066;20.976;2023-03-03T07:59:25;100622.13;;;11.29;41.40
76124;BME280;65173;48.066;20.976;2023-03-03T08:05:43;100611.59;;;11.72;41.37
76124;BME280;65173;48.066;20.976;2023-03-03T08:08:46;100617.47;;;12.34;39.76
76124;BME280;65173;48.066;20.976;2023-03-03T08:11:54;100616.91;;;13.31;39.75
76124;BME280;65173;48.066;20.976;2023-03-03T08:15:11;100616.56;;;13.62;37.06
76124;BME280;65173;48.066;20.976;2023-03-03T08:18:21;100610.38;;;13.70;37.72
76124;BME280;65173;48.066;20.976;2023-03-03T08:21:25;100615.97;;;14.39;37.17
76124;BME280;65173;48.066;20.976;2023-03-03T08:24:28;100619.22;;;14.33;36.53
76124;BME280;65173;48.066;20.976;2023-03-03T08:27:31;100613.75;;;14.62;33.34
76124;BME280;65173;48.066;20.976;2023-03-03T08:30:33;100610.72;;;14.64;35.00
76124;BME280;65173;48.066;20.976;2023-03-03T08:33:36;100602.94;;;14.83;33.63
76124;BME280;65173;48.066;20.976;2023-03-03T08:36:39;100610.34;;;14.98;35.21
76124;BME280;65173;48.066;20.976;2023-03-03T08:39:42;100603.63;;;14.92;34.75
76124;BME280;65173;48.066;20.976;2023-03-03T08:42:46;100608.25;;;15.40;34.59
76124;BME280;65173;48.066;20.976;2023-03-03T08:45:50;100612.16;;;15.55;34.52
76124;BME280;65173;48.066;20.976;2023-03-03T08:48:53;100602.16;;;15.80;34.01
76124;BME280;65173;48.066;20.976;2023-03-03T08:51:56;100606.56;;;15.60;33.09
76124;BME280;65173;48.066;20.976;2023-03-03T08:54:59;100606.78;;;16.07;33.26
76124;BME280;65173;48.066;20.976;2023-03-03T08:58:02;100610.47;;;16.43;33.70
76124;BME280;65173;48.066;20.976;2023-03-03T09:01:05;100605.69;;;16.80;32.99
76124;BME280;65173;48.066;20.976;2023-03-03T09:04:08;100602.22;;;16.95;32.08
76124;BME280;65173;48.066;20.976;2023-03-03T09:07:10;100603.09;;;16.00;34.59
76124;BME280;65173;48.066;20.976;2023-03-03T09:10:17;100602.16;;;16.20;33.23
76124;BME280;65173;48.066;20.976;2023-03-03T09:13:21;100603.44;;;16.97;32.29
76124;BME280;65173;48.066;20.976;2023-03-03T09:16:26;100588.91;;;17.33;31.64
76124;BME280;65173;48.066;20.976;2023-03-03T09:19:32;100596.09;;;17.80;31.04
76124;BME280;65173;48.066;20.976;2023-03-03T09:22:38;100593.91;;;18.05;30.90
76124;BME280;65173;48.066;20.976;2023-03-03T09:25:41;100592.28;;;18.00;29.48
76124;BME280;65173;48.066;20.976;2023-03-03T09:28:44;100601.31;;;17.22;31.06
76124;BME280;65173;48.066;20.976;2023-03-03T09:31:50;100595.03;;;17.50;32.53
76124;BME280;65173;48.066;20.976;2023-03-03T09:34:57;100598.72;;;17.10;30.14
76124;BME280;65173;48.066;20.976;2023-03-03T09:38:01;100595.09;;;16.43;31.85
76124;BME280;65173;48.066;20.976;2023-03-03T09:48:28;100594.13;;;18.77;28.33
76124;BME280;65173;48.066;20.976;2023-03-03T09:51:49;100599.94;;;16.10;32.45
76124;BME280;65173;48.066;20.976;2023-03-03T09:59:32;100584.94;;;15.69;34.98
76124;BME280;65173;48.066;20.976;2023-03-03T10:02:31;100583.72;;;15.54;34.09
76124;BME280;65173;48.066;20.976;2023-03-03T10:05:50;100579.13;;;16.07;33.61
76124;BME280;65173;48.066;20.976;2023-03-03T10:09:04;100588.66;;;16.91;31.19
76124;BME280;65173;48.066;20.976;2023-03-03T10:13:15;100588.38;;;18.17;30.14
76124;BME280;65173;48.066;20.976;2023-03-03T10:20:45;100581.31;;;16.60;32.27
76124;BME280;65173;48.066;20.976;2023-03-03T10:23:54;100578.03;;;15.95;33.34
76124;BME280;65173;48.066;20.976;2023-03-03T10:27:11;100568.16;;;15.59;34.57
76124;BME280;65173;48.066;20.976;2023-03-03T10:44:46;100545.16;;;14.40;36.66
76124;BME280;65173;48.066;20.976;2023-03-03T11:14:22;100523.66;;;13.95;37.39
76124;BME280;65173;48.066;20.976;2023-03-03T11:21:19;100513.72;;;14.29;37.36
76124;BME280;65173;48.066;20.976;2023-03-03T11:41:57;100478.13;;;15.93;35.55
76124;BME280;65173;48.066;20.976;2023-03-03T11:45:15;100487.81;;;16.57;35.21
76124;BME280;65173;48.066;20.976;2023-03-03T11:51:43;100476.75;;;16.00;35.00
76124;BME280;65173;48.066;20.976;2023-03-03T11:55:13;100473.88;;;17.18;33.79
76124;BME280;65173;48.066;20.976;2023-03-03T11:58:39;100466.44;;;17.31;32.61
76124;BME280;65173;48.066;20.976;2023-03-03T12:09:12;100442.06;;;13.09;41.50
76124;BME280;65173;48.066;20.976;2023-03-03T12:12:21;100451.72;;;14.30;38.15
76124;BME280;65173;48.066;20.976;2023-03-03T12:15:45;100448.38;;;13.55;39.05
76124;BME280;65173;48.066;20.976;2023-03-03T12:19:49;100443.50;;;14.02;39.11
76124;BME280;65173;48.066;20.976;2023-03-03T12:22:34;100452.88;;;14.41;37.71
76124;BME280;65173;48.066;20.976;2023-03-03T12:25:42;100447.75;;;14.61;37.12
76124;BME280;65173;48.066;20.976;2023-03-03T12:29:25;100458.25;;;13.96;39.86
76124;BME280;65173;48.066;20.976;2023-03-03T12:42:56;100454.44;;;14.91;37.02
76124;BME280;65173;48.066;20.976;2023-03-03T12:49:19;100456.91;;;14.02;39.33
76124;BME280;65173;48.066;20.976;2023-03-03T12:55:50;100458.75;;;14.22;38.88
76124;BME280;65173;48.066;20.976;2023-03-03T12:59:04;100446.38;;;14.30;38.00
76124;BME280;65173;48.066;20.976;2023-03-03T13:02:38;100442.13;;;15.02;36.53
76124;BME280;65173;48.066;20.976;2023-03-03T13:12:58;100437.72;;;17.58;35.72
76124;BME280;65173;48.066;20.976;2023-03-03T13:16:14;100432.50;;;17.65;33.60
76124;BME280;65173;48.066;20.976;2023-03-03T13:19:56;100428.03;;;17.53;33.24
76124;BME280;65173;48.066;20.976;2023-03-03T13:23:21;100419.34;;;17.06;34.53
76124;BME280;65173;48.066;20.976;2023-03-03T13:26:38;100411.69;;;16.57;34.92
76124;BME280;65173;48.066;20.976;2023-03-03T13:36:13;100391.66;;;14.68;37.57
76124;BME280;65173;48.066;20.976;2023-03-03T13:40:12;100388.59;;;14.69;38.07
76124;BME280;65173;48.066;20.976;2023-03-03T13:43:25;100387.59;;;13.68;40.24
76124;BME280;65173;48.066;20.976;2023-03-03T13:46:49;100388.38;;;13.35;40.59
76124;BME280;65173;48.066;20.976;2023-03-03T13:57:09;100382.78;;;12.78;42.73
76124;BME280;65173;48.066;20.976;2023-03-03T14:04:00;100373.72;;;12.41;44.05
76124;BME280;65173;48.066;20.976;2023-03-03T14:07:21;100370.94;;;12.58;43.60
76124;BME280;65173;48.066;20.976;2023-03-03T14:10:43;100376.72;;;13.10;42.96
76124;BME280;65173;48.066;20.976;2023-03-03T14:17:11;100375.44;;;12.96;42.35
76124;BME280;65173;48.066;20.976;2023-03-03T14:20:29;100377.75;;;12.76;43.04
76124;BME280;65173;48.066;20.976;2023-03-03T14:23:47;100371.03;;;12.41;44.11
76124;BME280;65173;48.066;20.976;2023-03-03T14:26:53;100363.53;;;12.64;43.47
76124;BME280;65173;48.066;20.976;2023-03-03T14:29:57;100368.66;;;12.98;43.60
76124;BME280;65173;48.066;20.976;2023-03-03T14:33:04;100365.91;;;13.28;42.86
76124;BME280;65173;48.066;20.976;2023-03-03T14:36:25;100363.91;;;12.54;44.90
76124;BME280;65173;48.066;20.976;2023-03-03T14:39:37;100375.88;;;12.98;43.51
76124;BME280;65173;48.066;20.976;2023-03-03T14:42:52;100378.75;;;12.72;43.64
76124;BME280;65173;48.066;20.976;2023-03-03T14:45:56;100374.00;;;12.98;44.54
76124;BME280;65173;48.066;20.976;2023-03-03T14:49:37;100377.63;;;13.23;42.73
76124;BME280;65173;48.066;20.976;2023-03-03T14:52:40;100380.66;;;13.34;42.68
76124;BME280;65173;48.066;20.976;2023-03-03T14:55:45;100369.44;;;12.48;43.91
76124;BME280;65173;48.066;20.976;2023-03-03T14:58:54;100365.88;;;12.65;43.61
76124;BME280;65173;48.066;20.976;2023-03-03T15:05:26;100368.91;;;13.05;43.53
76124;BME280;65173;48.066;20.976;2023-03-03T15:08:32;100366.63;;;12.95;42.93
76124;BME280;65173;48.066;20.976;2023-03-03T15:11:35;100376.34;;;12.49;44.13
76124;BME280;65173;48.066;20.976;2023-03-03T15:14:43;100368.19;;;12.46;44.19
76124;BME280;65173;48.066;20.976;2023-03-03T15:24:25;100362.31;;;11.85;45.48
76124;BME280;65173;48.066;20.976;2023-03-03T15:27:47;100362.47;;;11.89;45.81
76124;BME280;65173;48.066;20.976;2023-03-03T15:34:26;100355.06;;;11.86;46.64
76124;BME280;65173;48.066;20.976;2023-03-03T15:37:46;100354.47;;;11.71;46.77
76124;BME280;65173;48.066;20.976;2023-03-03T15:41:14;100355.16;;;10.99;48.31
76124;BME280;65173;48.066;20.976;2023-03-03T15:44:41;100362.97;;;10.61;49.78
76124;BME280;65173;48.066;20.976;2023-03-03T16:02:15;100366.13;;;9.93;51.92
76124;BME280;65173;48.066;20.976;2023-03-03T16:08:48;100370.28;;;9.54;53.30
76124;BME280;65173;48.066;20.976;2023-03-03T16:12:24;100371.06;;;9.10;54.79
76124;BME280;65173;48.066;20.976;2023-03-03T16:15:47;100370.25;;;8.87;55.35
76124;BME280;65173;48.066;20.976;2023-03-03T16:26:12;100380.00;;;8.64;55.40
76124;BME280;65173;48.066;20.976;2023-03-03T16:47:01;100401.59;;;7.38;58.45
76124;BME280;65173;48.066;20.976;2023-03-03T16:50:53;100408.91;;;7.46;58.21
76124;BME280;65173;48.066;20.976;2023-03-03T17:04:31;100409.41;;;6.92;58.91
76124;BME280;65173;48.066;20.976;2023-03-03T17:07:48;100416.88;;;6.66;59.47
76124;BME280;65173;48.066;20.976;2023-03-03T17:14:28;100415.59;;;6.40;59.95
76124;BME280;65173;48.066;20.976;2023-03-03T17:17:53;100414.97;;;6.48;60.30
76124;BME280;65173;48.066;20.976;2023-03-03T17:20:59;100424.75;;;6.47;60.50
76124;BME280;65173;48.066;20.976;2023-03-03T17:27:37;100416.16;;;6.37;60.65
76124;BME280;65173;48.066;20.976;2023-03-03T17:34:30;100431.47;;;6.11;61.75
76124;BME280;65173;48.066;20.976;2023-03-03T17:38:01;100424.91;;;6.08;61.69
76124;BME280;65173;48.066;20.976;2023-03-03T17:45:33;100439.25;;;6.02;62.08
76124;BME280;65173;48.066;20.976;2023-03-03T18:02:02;100444.16;;;4.97;64.33
76124;BME280;65173;48.066;20.976;2023-03-03T18:05:35;100449.47;;;4.86;64.12
76124;BME280;65173;48.066;20.976;2023-03-03T18:19:30;100461.00;;;5.06;63.84
76124;BME280;65173;48.066;20.976;2023-03-03T18:22:42;100464.41;;;5.16;63.43
76124;BME280;65173;48.066;20.976;2023-03-03T18:25:53;100464.41;;;5.16;63.24
76124;BME280;65173;48.066;20.976;2023-03-03T18:32:58;100468.94;;;5.06;63.40
76124;BME280;65173;48.066;20.976;2023-03-03T18:36:13;100475.34;;;4.84;64.31
76124;BME280;65173;48.066;20.976;2023-03-03T18:39:35;100470.09;;;4.79;64.51
76124;BME280;65173;48.066;20.976;2023-03-03T18:42:41;100472.53;;;4.66;64.95
76124;BME280;65173;48.066;20.976;2023-03-03T18:45:46;100475.19;;;4.61;65.31
76124;BME280;65173;48.066;20.976;2023-03-03T18:49:05;100470.72;;;4.41;65.83
76124;BME280;65173;48.066;20.976;2023-03-03T18:52:24;100476.03;;;4.15;66.48
76124;BME280;65173;48.066;20.976;2023-03-03T18:55:38;100479.75;;;4.04;67.02
76124;BME280;65173;48.066;20.976;2023-03-03T18:58:43;100483.94;;;3.95;66.87
76124;BME280;65173;48.066;20.976;2023-03-03T19:01:47;100485.78;;;3.79;66.88
76124;BME280;65173;48.066;20.976;2023-03-03T19:04:53;100488.16;;;3.81;67.29
76124;BME280;65173;48.066;20.976;2023-03-03T19:08:01;100485.53;;;3.81;66.90
76124;BME280;65173;48.066;20.976;2023-03-03T19:14:43;100499.22;;;3.63;67.27
76124;BME280;65173;48.066;20.976;2023-03-03T19:17:48;100498.16;;;3.54;66.69
76124;BME280;65173;48.066;20.976;2023-03-03T19:21:05;100493.63;;;3.34;67.63
76124;BME280;65173;48.066;20.976;2023-03-03T19:24:25;100511.03;;;3.40;67.32
76124;BME280;65173;48.066;20.976;2023-03-03T19:27:44;100502.28;;;3.29;68.08
76124;BME280;65173;48.066;20.976;2023-03-03T19:37:21;100508.53;;;3.08;68.86
76124;BME280;65173;48.066;20.976;2023-03-03T19:40:36;100517.47;;;3.07;68.80
76124;BME280;65173;48.066;20.976;2023-03-03T19:44:05;100517.44;;;2.97;69.00
76124;BME280;65173;48.066;20.976;2023-03-03T19:51:33;100532.28;;;3.23;68.20
76124;BME280;65173;48.066;20.976;2023-03-03T20:01:09;100545.75;;;3.27;68.21
76124;BME280;65173;48.066;20.976;2023-03-03T20:08:14;100542.25;;;3.11;68.23
76124;BME280;65173;48.066;20.976;2023-03-03T20:18:01;100556.59;;;2.88;68.53
76124;BME280;65173;48.066;20.976;2023-03-03T20:21:21;100559.53;;;2.92;67.56
76124;BME280;65173;48.066;20.976;2023-03-03T20:28:23;100567.34;;;2.76;67.32
76124;BME280;65173;48.066;20.976;2023-03-03T20:45:26;100569.22;;;1.85;70.72
76124;BME280;65173;48.066;20.976;2023-03-03T20:55:12;100565.94;;;1.73;70.90
76124;BME280;65173;48.066;20.976;2023-03-03T21:04:45;100579.13;;;2.05;68.69
76124;BME280;65173;48.066;20.976;2023-03-03T21:07:59;100575.38;;;1.96;69.08
76124;BME280;65173;48.066;20.976;2023-03-03T21:11:03;100573.75;;;1.90;69.90
76124;BME280;65173;48.066;20.976;2023-03-03T21:14:28;100577.19;;;1.68;70.27
76124;BME280;65173;48.066;20.976;2023-03-03T21:17:31;100578.00;;;1.47;70.75
76124;BME280;65173;48.066;20.976;2023-03-03T21:20:35;100582.59;;;1.57;70.50
76124;BME280;65173;48.066;20.976;2023-03-03T21:23:38;100583.31;;;1.52;71.08
76124;BME280;65173;48.066;20.976;2023-03-03T21:26:54;100573.66;;;1.58;70.11
76124;BME280;65173;48.066;20.976;2023-03-03T21:30:14;100574.94;;;1.55;70.36
76124;BME280;65173;48.066;20.976;2023-03-03T21:33:53;100584.34;;;1.51;70.97
76124;BME280;65173;48.066;20.976;2023-03-03T21:37:00;100591.38;;;1.46;70.26
76124;BME280;65173;48.066;20.976;2023-03-03T21:40:22;100580.28;;;1.38;71.32
76124;BME280;65173;48.066;20.976;2023-03-03T21:46:40;100580.13;;;1.28;71.38